TAF and METAR

METAR for Upington Airport

FAUP 011600Z 00000KT 9999 FEW040 28/07 Q1019 NOSIG
Report created 1. apr 18:00
wind 0 knots from N (000°) visibility > 10km some clouds (~25% cover) at 4000 feet Temperature 28° with dewpoint at 7° (Humidity 26.56%) Pressure 1019 hPa no significant weather change expected the next couple of hours
No TAF available for Upington Airport
Upington Airport in South Africa at 836m

Latest 5 airports